createdAt,value
2016-11-22T00:00:07.177Z,1003.36
2016-11-22T00:01:17.499Z,1003.39
2016-11-22T00:02:27.845Z,1003.39
2016-11-22T00:03:38.318Z,1003.38
2016-11-22T00:04:48.652Z,1003.36
2016-11-22T00:05:58.984Z,1003.33
2016-11-22T00:07:09.005Z,1003.36
2016-11-22T00:08:19.169Z,1003.35
2016-11-22T00:09:28.876Z,1003.33
2016-11-22T00:10:39.228Z,1003.36
2016-11-22T00:11:48.937Z,1003.33
2016-11-22T00:12:59.276Z,1003.31
2016-11-22T00:14:09.366Z,1003.33
2016-11-22T00:15:19.378Z,1003.36
2016-11-22T00:16:29.717Z,1003.36
2016-11-22T00:17:40.117Z,1003.37
2016-11-22T00:18:50.454Z,1003.37
2016-11-22T00:20:00.885Z,1003.38
2016-11-22T00:21:10.896Z,1003.37
2016-11-22T00:22:21.277Z,1003.33
2016-11-22T00:23:31.618Z,1003.32
2016-11-22T00:24:41.950Z,1003.3
2016-11-22T00:25:52.278Z,1003.29
2016-11-22T00:27:02.625Z,1003.26
2016-11-22T00:28:12.957Z,1003.21
2016-11-22T00:29:22.986Z,1003.16
2016-11-22T00:30:33.388Z,1003.03
2016-11-22T00:31:43.427Z,1003.04
2016-11-22T00:32:53.765Z,1003.14
2016-11-22T00:34:03.789Z,1003.28
2016-11-22T00:35:14.123Z,1003.39
2016-11-22T00:36:24.588Z,1003.46
2016-11-22T00:37:34.909Z,1003.52
2016-11-22T00:38:44.913Z,1003.57
2016-11-22T00:39:55.234Z,1003.64
2016-11-22T00:41:05.554Z,1003.64
2016-11-22T00:42:15.889Z,1003.63
2016-11-22T00:43:26.339Z,1003.66
2016-11-22T00:44:37.668Z,1003.64
2016-11-22T00:45:47.696Z,1003.51
2016-11-22T00:46:58.025Z,1003.55
2016-11-22T00:48:08.367Z,1003.53
2016-11-22T00:49:18.805Z,1003.5
2016-11-22T00:50:29.146Z,1003.41
2016-11-22T00:51:39.497Z,1003.44
2016-11-22T00:52:49.935Z,1003.42
2016-11-22T00:54:00.279Z,1003.52
2016-11-22T00:55:10.619Z,1003.59
2016-11-22T00:56:20.958Z,1003.62
2016-11-22T00:57:31.325Z,1003.61
2016-11-22T00:58:41.699Z,1003.61
2016-11-22T00:59:51.718Z,1003.62
2016-11-22T01:01:01.848Z,1003.69
2016-11-22T01:02:11.964Z,1003.68
2016-11-22T01:03:22.299Z,1003.64
2016-11-22T01:04:32.629Z,1003.63
2016-11-22T01:05:42.688Z,1003.66
2016-11-22T01:06:52.754Z,1003.76
2016-11-22T01:08:02.838Z,1003.83
2016-11-22T01:09:13.155Z,1003.85
2016-11-22T01:10:23.501Z,1003.89
2016-11-22T01:11:33.567Z,1003.91
2016-11-22T01:12:43.890Z,1003.85
2016-11-22T01:13:54.216Z,1003.89
2016-11-22T01:15:04.552Z,1003.9
2016-11-22T01:16:14.939Z,1003.83
2016-11-22T01:17:25.267Z,1003.91
2016-11-22T01:18:35.589Z,1003.9
2016-11-22T01:19:46.064Z,1003.99
2016-11-22T01:20:56.397Z,1003.92
2016-11-22T01:22:06.717Z,1004.02
2016-11-22T01:23:17.088Z,1004.07
2016-11-22T01:24:27.095Z,1004.09
2016-11-22T01:25:37.410Z,1004.08
2016-11-22T01:26:47.728Z,1004.11
2016-11-22T01:27:58.147Z,1004.1
2016-11-22T01:29:08.488Z,1004.12
2016-11-22T01:30:18.806Z,1004.05
2016-11-22T01:31:29.144Z,1004.02
2016-11-22T01:32:39.496Z,1004.02
2016-11-22T01:33:49.579Z,1004.02
2016-11-22T01:34:59.697Z,1004.01
2016-11-22T01:36:10.207Z,1004.11
2016-11-22T01:37:20.242Z,1004.15
2016-11-22T01:38:30.638Z,1004.15
2016-11-22T01:39:40.968Z,1004.18
2016-11-22T01:40:51.309Z,1004.1
2016-11-22T01:42:01.420Z,1004.03
2016-11-22T01:43:11.772Z,1004.05
2016-11-22T01:44:22.300Z,1004.07
2016-11-22T01:45:32.630Z,1004.13
2016-11-22T01:46:43.021Z,1004.15
2016-11-22T01:47:52.727Z,1004.09
2016-11-22T01:49:03.086Z,1004.11
2016-11-22T01:50:13.441Z,1004.03
2016-11-22T01:51:22.948Z,1004.05
2016-11-22T01:52:32.979Z,1003.99
2016-11-22T01:53:43.308Z,1004.02
2016-11-22T01:54:53.636Z,1004.09
2016-11-22T01:56:03.972Z,1004.09
2016-11-22T01:57:13.973Z,1004.14
2016-11-22T01:58:24.369Z,1004.17
2016-11-22T01:59:34.437Z,1004.16
2016-11-22T02:00:44.868Z,1004.24
2016-11-22T02:01:55.208Z,1004.25
2016-11-22T02:03:05.534Z,1004.28
2016-11-22T02:04:15.967Z,1004.22
2016-11-22T02:05:26.379Z,1004.29
2016-11-22T02:06:36.404Z,1004.25
2016-11-22T02:07:46.432Z,1004.2
2016-11-22T02:08:56.798Z,1004.27
2016-11-22T02:10:07.152Z,1004.26
2016-11-22T02:11:17.469Z,1004.21
2016-11-22T02:12:27.486Z,1004.16
2016-11-22T02:13:37.818Z,1004.14
2016-11-22T02:14:48.119Z,1004.2
2016-11-22T02:15:58.439Z,1004.29
2016-11-22T02:17:08.558Z,1004.26
2016-11-22T02:18:18.898Z,1004.21
2016-11-22T02:19:28.933Z,1004.22
2016-11-22T02:20:39.097Z,1004.2
2016-11-22T02:21:49.449Z,1004.15
2016-11-22T02:22:59.479Z,1004.08
2016-11-22T02:24:09.949Z,1004.14
2016-11-22T02:25:20.317Z,1004.12
2016-11-22T02:26:30.786Z,1004.19
2016-11-22T02:27:41.107Z,1004.21
2016-11-22T02:28:51.457Z,1004.31
2016-11-22T02:30:01.797Z,1004.33
2016-11-22T02:31:12.144Z,1004.42
2016-11-22T02:32:22.464Z,1004.34
2016-11-22T02:33:32.868Z,1004.27
2016-11-22T02:34:42.887Z,1004.18
2016-11-22T02:35:52.907Z,1004.1
2016-11-22T02:37:03.278Z,1004.04
2016-11-22T02:38:13.613Z,1003.95
2016-11-22T02:39:24.107Z,1003.91
2016-11-22T02:40:34.442Z,1003.81
2016-11-22T02:41:44.466Z,1003.79
2016-11-22T02:42:54.546Z,1003.81
2016-11-22T02:44:05.023Z,1003.84
2016-11-22T02:45:15.362Z,1003.79
2016-11-22T02:46:25.393Z,1003.78
2016-11-22T02:47:35.424Z,1003.79
2016-11-22T02:48:45.744Z,1003.81
2016-11-22T02:49:55.805Z,1003.75
2016-11-22T02:51:06.244Z,1003.7
2016-11-22T02:52:16.597Z,1003.79
2016-11-22T02:53:26.925Z,1003.77
2016-11-22T02:54:37.261Z,1003.77
2016-11-22T02:55:47.705Z,1003.79
2016-11-22T02:56:57.759Z,1003.81
2016-11-22T02:58:07.807Z,1003.89
2016-11-22T02:59:18.143Z,1003.94
2016-11-22T03:00:28.545Z,1003.97
2016-11-22T03:01:38.889Z,1004.03
2016-11-22T03:02:49.214Z,1004.06
2016-11-22T03:03:59.565Z,1004.08
2016-11-22T03:05:09.995Z,1004.16
2016-11-22T03:06:20.324Z,1004.15
2016-11-22T03:07:30.661Z,1004.1
2016-11-22T03:08:41.026Z,1004.19
2016-11-22T03:09:51.410Z,1004.22
2016-11-22T03:11:01.426Z,1004.27
2016-11-22T03:12:11.764Z,1004.23
2016-11-22T03:13:22.137Z,1004.36
2016-11-22T03:14:32.623Z,1004.32
2016-11-22T03:15:43.034Z,1004.31
2016-11-22T03:16:53.059Z,1004.29
2016-11-22T03:18:03.401Z,1004.32
2016-11-22T03:19:13.567Z,1004.46
2016-11-22T03:20:23.944Z,1004.49
2016-11-22T03:21:34.276Z,1004.53
2016-11-22T03:22:44.669Z,1004.49
2016-11-22T03:23:55.005Z,1004.44
2016-11-22T03:25:05.128Z,1004.33
2016-11-22T03:26:15.525Z,1004.26
2016-11-22T03:27:25.853Z,1004.34
2016-11-22T03:28:35.912Z,1004.26
2016-11-22T03:29:46.251Z,1004.25
2016-11-22T03:30:56.704Z,1004.3
2016-11-22T03:32:07.042Z,1004.38
2016-11-22T03:33:17.081Z,1004.3
2016-11-22T03:34:27.477Z,1004.2
2016-11-22T03:35:37.825Z,1004.23
2016-11-22T03:36:48.155Z,1004.18
2016-11-22T03:37:58.483Z,1004.23
2016-11-22T03:39:08.811Z,1004.28
2016-11-22T03:40:19.130Z,1004.26
2016-11-22T03:41:29.453Z,1004.29
2016-11-22T03:42:39.791Z,1004.32
2016-11-22T03:43:49.490Z,1004.32
2016-11-22T03:44:59.525Z,1004.32
2016-11-22T03:46:09.557Z,1004.22
2016-11-22T03:47:19.892Z,1004.16
2016-11-22T03:48:30.221Z,1004.04
2016-11-22T03:49:40.549Z,1003.99
2016-11-22T03:50:50.884Z,1004.01
2016-11-22T03:52:01.234Z,1003.99
2016-11-22T03:53:11.561Z,1003.99
2016-11-22T03:54:21.901Z,1004.03
2016-11-22T03:55:31.983Z,1004.22
2016-11-22T03:56:42.362Z,1004.26
2016-11-22T03:57:52.837Z,1004.33
2016-11-22T03:59:02.861Z,1004.37
2016-11-22T04:00:13.236Z,1004.4
2016-11-22T04:01:23.585Z,1004.32
2016-11-22T04:02:33.932Z,1004.27
2016-11-22T04:03:44.722Z,1004.24
2016-11-22T04:04:55.141Z,1004.22
2016-11-22T04:06:05.511Z,1004.28
2016-11-22T04:07:15.833Z,1004.23
2016-11-22T04:08:25.873Z,1004.35
2016-11-22T04:09:36.197Z,1004.3
2016-11-22T04:10:46.214Z,1004.42
2016-11-22T04:11:56.236Z,1004.5
2016-11-22T04:13:06.487Z,1004.52
2016-11-22T04:14:17.008Z,1004.54
2016-11-22T04:15:26.806Z,1004.46
2016-11-22T04:16:37.167Z,1004.6
2016-11-22T04:17:47.186Z,1004.67
2016-11-22T04:18:57.517Z,1004.77
2016-11-22T04:20:08.014Z,1004.82
2016-11-22T04:21:18.335Z,1004.91
2016-11-22T04:22:28.705Z,1004.95
2016-11-22T04:23:39.262Z,1004.97
2016-11-22T04:24:49.613Z,1005.09
2016-11-22T04:26:00.055Z,1005.23
2016-11-22T04:27:10.377Z,1005.26
2016-11-22T04:28:20.393Z,1005.24
2016-11-22T04:29:30.805Z,1005.26
2016-11-22T04:30:40.983Z,1005.2
2016-11-22T04:31:51.006Z,1005.23
2016-11-22T04:33:01.435Z,1005.22
2016-11-22T04:34:11.958Z,1005.25
2016-11-22T04:35:22.368Z,1005.31
2016-11-22T04:36:32.407Z,1005.44
2016-11-22T04:37:42.778Z,1005.66
2016-11-22T04:38:53.104Z,1005.71
2016-11-22T04:40:03.118Z,1005.72
2016-11-22T04:41:13.489Z,1005.61
2016-11-22T04:42:23.831Z,1005.7
2016-11-22T04:43:33.935Z,1005.84
2016-11-22T04:44:43.956Z,1005.88
2016-11-22T04:45:54.495Z,1005.82
2016-11-22T04:47:04.214Z,1005.81
2016-11-22T04:48:14.544Z,1005.83
2016-11-22T04:49:24.984Z,1005.87
2016-11-22T04:50:35.327Z,1005.9
2016-11-22T04:51:45.659Z,1005.89
2016-11-22T04:52:56.027Z,1005.86
2016-11-22T04:54:06.445Z,1005.82
2016-11-22T04:55:17.074Z,1005.78
2016-11-22T04:56:27.449Z,1005.77
2016-11-22T04:57:37.786Z,1005.69
2016-11-22T04:58:48.320Z,1005.73
2016-11-22T04:59:58.662Z,1005.76
2016-11-22T05:01:09.030Z,1005.83
2016-11-22T05:02:19.505Z,1005.84
2016-11-22T05:03:29.870Z,1005.89
2016-11-22T05:04:40.294Z,1005.87
2016-11-22T05:05:50.704Z,1005.78
2016-11-22T05:07:00.778Z,1005.79
2016-11-22T05:08:11.144Z,1005.77
2016-11-22T05:09:21.645Z,1005.8
2016-11-22T05:10:32.156Z,1005.8
2016-11-22T05:11:42.628Z,1005.81
2016-11-22T05:12:52.956Z,1005.81
2016-11-22T05:14:03.038Z,1005.89
2016-11-22T05:15:13.419Z,1005.92
2016-11-22T05:16:23.724Z,1005.79
2016-11-22T05:17:33.789Z,1005.82
2016-11-22T05:18:44.143Z,1005.79
2016-11-22T05:19:54.470Z,1005.76
2016-11-22T05:21:04.169Z,1005.81
2016-11-22T05:22:14.199Z,1005.88
2016-11-22T05:23:24.688Z,1005.88
2016-11-22T05:24:35.135Z,1005.94
2016-11-22T05:25:45.472Z,1005.98
2016-11-22T05:26:55.501Z,1006
2016-11-22T05:28:05.831Z,1006.01
2016-11-22T05:29:16.183Z,1005.95
2016-11-22T05:30:26.568Z,1005.96
2016-11-22T05:31:36.583Z,1005.99
2016-11-22T05:32:47.232Z,1005.99
2016-11-22T05:33:57.580Z,1006.1
2016-11-22T05:35:08.074Z,1006.21
2016-11-22T05:36:18.400Z,1006.24
2016-11-22T05:37:28.465Z,1006.16
2016-11-22T05:38:38.805Z,1006.07
2016-11-22T05:39:49.131Z,1006.15
2016-11-22T05:40:59.691Z,1006.23
2016-11-22T05:42:10.123Z,1006.21
2016-11-22T05:43:20.610Z,1006.29
2016-11-22T05:44:30.770Z,1006.33
2016-11-22T05:45:40.790Z,1006.27
2016-11-22T05:46:51.154Z,1006.24
2016-11-22T05:48:01.510Z,1006.29
2016-11-22T05:49:11.558Z,1006.4
2016-11-22T05:50:21.990Z,1006.47
2016-11-22T05:51:32.122Z,1006.46
2016-11-22T05:52:42.326Z,1006.43
2016-11-22T05:53:52.693Z,1006.53
2016-11-22T05:55:02.765Z,1006.62
2016-11-22T05:56:13.141Z,1006.68
2016-11-22T05:57:23.182Z,1006.73
2016-11-22T05:58:33.544Z,1006.71
2016-11-22T05:59:43.600Z,1006.74
2016-11-22T06:00:53.301Z,1006.7
2016-11-22T06:02:03.704Z,1006.68
2016-11-22T06:03:14.050Z,1006.74
2016-11-22T06:04:24.091Z,1006.7
2016-11-22T06:05:34.504Z,1006.63
2016-11-22T06:06:45.071Z,1006.56
2016-11-22T06:07:55.397Z,1006.54
2016-11-22T06:09:05.736Z,1006.57
2016-11-22T06:10:16.056Z,1006.49
2016-11-22T06:11:26.498Z,1006.51
2016-11-22T06:12:36.818Z,1006.57
2016-11-22T06:13:47.446Z,1006.58
2016-11-22T06:14:57.483Z,1006.59
2016-11-22T06:16:07.808Z,1006.55
2016-11-22T06:17:18.168Z,1006.55
2016-11-22T06:18:28.501Z,1006.58
2016-11-22T06:19:38.540Z,1006.71
2016-11-22T06:20:48.903Z,1006.8
2016-11-22T06:21:59.308Z,1006.87
2016-11-22T06:23:10.055Z,1006.89
2016-11-22T06:24:20.092Z,1006.91
2016-11-22T06:25:30.130Z,1006.89
2016-11-22T06:26:40.498Z,1006.95
2016-11-22T06:27:50.596Z,1007
2016-11-22T06:29:00.629Z,1006.91
2016-11-22T06:30:10.965Z,1006.91
2016-11-22T06:31:21.017Z,1006.89
2016-11-22T06:32:31.458Z,1006.93
2016-11-22T06:33:41.612Z,1006.91
2016-11-22T06:34:52.137Z,1006.97
2016-11-22T06:36:02.176Z,1007.05
2016-11-22T06:37:12.658Z,1007.08
2016-11-22T06:38:23.003Z,1007.02
2016-11-22T06:39:33.355Z,1007.09
2016-11-22T06:40:43.427Z,1007.18
2016-11-22T06:41:53.767Z,1007.21
2016-11-22T06:43:04.115Z,1007.24
2016-11-22T06:44:14.466Z,1007.27
2016-11-22T06:45:24.902Z,1007.24
2016-11-22T06:46:35.349Z,1007.3
2016-11-22T06:47:45.794Z,1007.35
2016-11-22T06:48:55.846Z,1007.4
2016-11-22T06:50:05.884Z,1007.53
2016-11-22T06:51:15.942Z,1007.6
2016-11-22T06:52:25.686Z,1007.65
2016-11-22T06:53:36.020Z,1007.61
2016-11-22T06:54:46.383Z,1007.66
2016-11-22T06:55:56.711Z,1007.65
2016-11-22T06:57:07.129Z,1007.62
2016-11-22T06:58:17.606Z,1007.61
2016-11-22T06:59:27.958Z,1007.57
2016-11-22T07:00:38.315Z,1007.59
2016-11-22T07:01:48.675Z,1007.59
2016-11-22T07:02:59.113Z,1007.53
2016-11-22T07:04:09.191Z,1007.47
2016-11-22T07:05:19.584Z,1007.45
2016-11-22T07:06:29.907Z,1007.46
2016-11-22T07:07:40.366Z,1007.58
2016-11-22T07:08:50.426Z,1007.62
2016-11-22T07:10:00.898Z,1007.69
2016-11-22T07:11:11.239Z,1007.65
2016-11-22T07:12:21.563Z,1007.7
2016-11-22T07:13:31.601Z,1007.74
2016-11-22T07:14:41.954Z,1007.82
2016-11-22T07:15:52.500Z,1007.86
2016-11-22T07:17:02.925Z,1007.84
2016-11-22T07:18:13.414Z,1007.8
2016-11-22T07:19:23.754Z,1007.75
2016-11-22T07:20:34.081Z,1007.82
2016-11-22T07:21:44.444Z,1007.79
2016-11-22T07:22:54.781Z,1007.84
2016-11-22T07:24:05.089Z,1007.82
2016-11-22T07:25:15.231Z,1007.85
2016-11-22T07:26:25.583Z,1007.92
2016-11-22T07:27:34.994Z,1007.95
2016-11-22T07:28:45.485Z,1007.96
2016-11-22T07:29:55.853Z,1007.96
2016-11-22T07:31:06.321Z,1007.99
2016-11-22T07:32:16.743Z,1007.95
2016-11-22T07:33:26.875Z,1007.99
2016-11-22T07:34:37.201Z,1007.99
2016-11-22T07:35:46.601Z,1007.94
2016-11-22T07:36:56.927Z,1007.91
2016-11-22T07:38:07.100Z,1007.96
2016-11-22T07:39:16.834Z,1007.94
2016-11-22T07:40:27.280Z,1008.04
2016-11-22T07:41:37.624Z,1008.12
2016-11-22T07:42:48.084Z,1008.13
2016-11-22T07:43:58.501Z,1008.18
2016-11-22T07:45:08.936Z,1008.2
2016-11-22T07:46:19.340Z,1008.25
2016-11-22T07:47:29.064Z,1008.23
2016-11-22T07:48:39.420Z,1008.22
2016-11-22T07:49:49.921Z,1008.2
2016-11-22T07:51:00.325Z,1008.3
2016-11-22T07:52:10.761Z,1008.31
2016-11-22T07:53:20.846Z,1008.31
2016-11-22T07:54:31.245Z,1008.34
2016-11-22T07:55:41.632Z,1008.38
2016-11-22T07:56:51.961Z,1008.43
2016-11-22T07:58:02.312Z,1008.47
2016-11-22T07:59:12.780Z,1008.5
2016-11-22T08:00:23.406Z,1008.52
2016-11-22T08:01:33.750Z,1008.56
2016-11-22T08:02:44.062Z,1008.55
2016-11-22T08:03:54.530Z,1008.61
2016-11-22T08:05:04.862Z,1008.6
2016-11-22T08:06:14.899Z,1008.59
2016-11-22T08:07:25.233Z,1008.54
2016-11-22T08:08:35.783Z,1008.56
2016-11-22T08:09:46.128Z,1008.58
2016-11-22T08:10:56.467Z,1008.6
2016-11-22T08:12:06.739Z,1008.57
2016-11-22T08:13:16.440Z,1008.6
2016-11-22T08:14:26.917Z,1008.6
2016-11-22T08:15:37.268Z,1008.61
2016-11-22T08:16:47.631Z,1008.61
2016-11-22T08:17:57.980Z,1008.6
2016-11-22T08:19:08.450Z,1008.67
2016-11-22T08:20:18.781Z,1008.7
2016-11-22T08:21:28.819Z,1008.74
2016-11-22T08:22:39.193Z,1008.77
2016-11-22T08:23:49.550Z,1008.83
2016-11-22T08:25:00.037Z,1008.83
2016-11-22T08:26:10.379Z,1008.85
2016-11-22T08:27:20.461Z,1008.94
2016-11-22T08:28:30.785Z,1008.94
2016-11-22T08:29:41.290Z,1008.94
2016-11-22T08:30:51.302Z,1009
2016-11-22T08:32:01.738Z,1009
2016-11-22T08:33:12.129Z,1009.02
2016-11-22T08:34:22.456Z,1009.05
2016-11-22T08:35:33.120Z,1009.06
2016-11-22T08:36:43.580Z,1009.04
2016-11-22T08:37:54.059Z,1009.04
2016-11-22T08:39:04.379Z,1009.09
2016-11-22T08:40:14.817Z,1009.07
2016-11-22T08:41:25.164Z,1009.1
2016-11-22T08:42:35.529Z,1009.1
2016-11-22T08:43:45.703Z,1009.09
2016-11-22T08:44:55.974Z,1009.11
2016-11-22T08:46:06.371Z,1009.17
2016-11-22T08:47:16.729Z,1009.16
2016-11-22T08:48:27.063Z,1009.2
2016-11-22T08:49:37.169Z,1009.21
2016-11-22T08:50:47.522Z,1009.24
2016-11-22T08:51:57.870Z,1009.26
2016-11-22T08:53:07.895Z,1009.27
2016-11-22T08:54:18.789Z,1009.24
2016-11-22T08:55:28.812Z,1009.26
2016-11-22T08:56:39.154Z,1009.3
2016-11-22T08:57:49.600Z,1009.32
2016-11-22T08:58:59.937Z,1009.37
2016-11-22T09:00:10.310Z,1009.36
2016-11-22T09:01:20.739Z,1009.33
2016-11-22T09:02:31.047Z,1009.36
2016-11-22T09:03:41.166Z,1009.41
2016-11-22T09:04:50.868Z,1009.38
2016-11-22T09:06:01.214Z,1009.5
2016-11-22T09:07:11.588Z,1009.5
2016-11-22T09:08:21.980Z,1009.55
2016-11-22T09:09:32.347Z,1009.52
2016-11-22T09:10:42.347Z,1009.57
2016-11-22T09:11:52.737Z,1009.57
2016-11-22T09:13:03.268Z,1009.67
2016-11-22T09:14:13.707Z,1009.72
2016-11-22T09:15:24.051Z,1009.77
2016-11-22T09:16:34.109Z,1009.81
2016-11-22T09:17:44.148Z,1009.9
2016-11-22T09:18:54.628Z,1009.97
2016-11-22T09:20:04.989Z,1010.01
2016-11-22T09:21:14.716Z,1010
2016-11-22T09:22:25.150Z,1010
2016-11-22T09:23:35.588Z,1009.96
2016-11-22T09:24:46.169Z,1009.98
2016-11-22T09:25:56.353Z,1010.02
2016-11-22T09:27:06.701Z,1010.05
2016-11-22T09:28:17.046Z,1010.08
2016-11-22T09:29:27.373Z,1010.09
2016-11-22T09:30:37.129Z,1010.07
2016-11-22T09:31:47.521Z,1010.04
2016-11-22T09:32:57.556Z,1010.02
2016-11-22T09:34:07.971Z,1010.08
2016-11-22T09:35:18.070Z,1010.12
2016-11-22T09:36:28.115Z,1010.2
2016-11-22T09:37:38.382Z,1010.16
2016-11-22T09:38:48.782Z,1010.28
2016-11-22T09:39:58.809Z,1010.3
2016-11-22T09:41:08.849Z,1010.3
2016-11-22T09:42:19.184Z,1010.35
2016-11-22T09:43:29.678Z,1010.35
2016-11-22T09:44:39.707Z,1010.42
2016-11-22T09:45:49.739Z,1010.48
2016-11-22T09:47:00.086Z,1010.47
2016-11-22T09:48:10.490Z,1010.46
2016-11-22T09:49:20.205Z,1010.44
2016-11-22T09:50:30.552Z,1010.53
2016-11-22T09:51:40.907Z,1010.52
2016-11-22T09:52:51.310Z,1010.56
2016-11-22T09:54:01.384Z,1010.56
2016-11-22T09:55:11.728Z,1010.56
2016-11-22T09:56:22.221Z,1010.62
2016-11-22T09:57:32.549Z,1010.61
2016-11-22T09:58:43.048Z,1010.67
2016-11-22T09:59:52.827Z,1010.65
2016-11-22T10:01:03.201Z,1010.62
2016-11-22T10:02:13.616Z,1010.64
2016-11-22T10:03:23.973Z,1010.66
2016-11-22T10:04:34.357Z,1010.6
2016-11-22T10:05:44.389Z,1010.65
2016-11-22T10:06:54.711Z,1010.61
2016-11-22T10:08:04.826Z,1010.58
2016-11-22T10:09:15.150Z,1010.55
2016-11-22T10:10:25.490Z,1010.6
2016-11-22T10:11:35.820Z,1010.56
2016-11-22T10:12:45.919Z,1010.61
2016-11-22T10:13:55.631Z,1010.59
2016-11-22T10:15:05.692Z,1010.55
2016-11-22T10:16:16.038Z,1010.55
2016-11-22T10:17:26.517Z,1010.53
2016-11-22T10:18:36.879Z,1010.56
2016-11-22T10:19:46.980Z,1010.53
2016-11-22T10:20:57.003Z,1010.63
2016-11-22T10:22:06.716Z,1010.59
2016-11-22T10:23:17.060Z,1010.56
2016-11-22T10:24:27.464Z,1010.63
2016-11-22T10:25:37.797Z,1010.65
2016-11-22T10:26:48.124Z,1010.67
2016-11-22T10:27:58.476Z,1010.7
2016-11-22T10:29:09.011Z,1010.75
2016-11-22T10:30:19.070Z,1010.8
2016-11-22T10:31:29.404Z,1010.76
2016-11-22T10:32:39.747Z,1010.74
2016-11-22T10:33:50.190Z,1010.79
2016-11-22T10:35:00.529Z,1010.8
2016-11-22T10:36:10.899Z,1010.82
2016-11-22T10:37:20.946Z,1010.8
2016-11-22T10:38:31.602Z,1010.83
2016-11-22T10:39:41.936Z,1010.79
2016-11-22T10:40:52.295Z,1010.81
2016-11-22T10:42:02.346Z,1010.83
2016-11-22T10:43:12.393Z,1010.81
2016-11-22T10:44:22.421Z,1010.84
2016-11-22T10:45:32.461Z,1010.86
2016-11-22T10:46:42.803Z,1010.88
2016-11-22T10:47:52.522Z,1010.93
2016-11-22T10:49:02.970Z,1010.98
2016-11-22T10:50:13.342Z,1011.01
2016-11-22T10:51:23.779Z,1011.08
2016-11-22T10:52:34.548Z,1011.06
2016-11-22T10:53:44.610Z,1011.08
2016-11-22T10:54:55.037Z,1011.09
2016-11-22T10:56:05.482Z,1011.08
2016-11-22T10:57:15.831Z,1011.13
2016-11-22T10:58:26.402Z,1011.18
2016-11-22T10:59:36.739Z,1011.18
2016-11-22T11:00:47.094Z,1011.13
2016-11-22T11:01:57.111Z,1011.16
2016-11-22T11:03:07.455Z,1011.16
2016-11-22T11:04:17.620Z,1011.16
2016-11-22T11:05:27.690Z,1011.2
2016-11-22T11:06:37.910Z,1011.18
2016-11-22T11:07:47.940Z,1011.18
2016-11-22T11:08:57.991Z,1011.23
2016-11-22T11:10:08.468Z,1011.19
2016-11-22T11:11:18.844Z,1011.23
2016-11-22T11:12:28.860Z,1011.16
2016-11-22T11:13:39.452Z,1011.17
2016-11-22T11:14:49.870Z,1011.19
2016-11-22T11:16:00.227Z,1011.2
2016-11-22T11:17:10.673Z,1011.14
2016-11-22T11:18:20.470Z,1011.13
2016-11-22T11:19:31.222Z,1011.1
2016-11-22T11:20:41.870Z,1011.07
2016-11-22T11:21:51.600Z,1011.06
2016-11-22T11:23:01.942Z,1011.03
2016-11-22T11:24:12.288Z,1011.09
2016-11-22T11:25:22.765Z,1011.11
2016-11-22T11:26:32.804Z,1011.12
2016-11-22T11:27:43.313Z,1011.12
2016-11-22T11:28:53.635Z,1011.14
2016-11-22T11:30:03.977Z,1011.15
2016-11-22T11:31:13.993Z,1011.13
2016-11-22T11:32:24.462Z,1011.2
2016-11-22T11:33:34.830Z,1011.25
2016-11-22T11:34:44.869Z,1011.28
2016-11-22T11:35:55.234Z,1011.31
2016-11-22T11:37:05.274Z,1011.29
2016-11-22T11:38:15.644Z,1011.29
2016-11-22T11:39:26.063Z,1011.33
2016-11-22T11:40:36.418Z,1011.34
2016-11-22T11:41:46.981Z,1011.34
2016-11-22T11:42:56.707Z,1011.31
2016-11-22T11:44:06.437Z,1011.35
2016-11-22T11:45:17.134Z,1011.31
2016-11-22T11:46:27.488Z,1011.33
2016-11-22T11:47:37.543Z,1011.3
2016-11-22T11:48:47.563Z,1011.32
2016-11-22T11:49:57.892Z,1011.35
2016-11-22T11:51:08.311Z,1011.4
2016-11-22T11:52:18.661Z,1011.46
2016-11-22T11:53:29.118Z,1011.37
2016-11-22T11:54:39.683Z,1011.39
2016-11-22T11:55:50.061Z,1011.41
2016-11-22T11:57:00.162Z,1011.41
2016-11-22T11:58:10.521Z,1011.46
2016-11-22T11:59:20.901Z,1011.41
2016-11-22T12:00:31.323Z,1011.37
2016-11-22T12:01:41.741Z,1011.37
2016-11-22T12:02:52.173Z,1011.37
2016-11-22T12:04:02.215Z,1011.39
2016-11-22T12:05:12.576Z,1011.37
2016-11-22T12:06:22.600Z,1011.38
2016-11-22T12:07:32.941Z,1011.31
2016-11-22T12:08:43.472Z,1011.3
2016-11-22T12:09:53.506Z,1011.31
2016-11-22T12:11:03.581Z,1011.29
2016-11-22T12:12:13.917Z,1011.25
2016-11-22T12:13:24.380Z,1011.23
2016-11-22T12:14:34.837Z,1011.23
2016-11-22T12:15:45.172Z,1011.25
2016-11-22T12:16:55.216Z,1011.27
2016-11-22T12:18:05.586Z,1011.29
2016-11-22T12:19:15.642Z,1011.26
2016-11-22T12:20:25.672Z,1011.31
2016-11-22T12:21:36.037Z,1011.32
2016-11-22T12:22:46.391Z,1011.34
2016-11-22T12:23:56.817Z,1011.33
2016-11-22T12:25:07.023Z,1011.35
2016-11-22T12:26:17.073Z,1011.34
2016-11-22T12:27:27.466Z,1011.36
2016-11-22T12:28:37.504Z,1011.36
2016-11-22T12:29:47.975Z,1011.36
2016-11-22T12:30:58.015Z,1011.35
2016-11-22T12:32:08.367Z,1011.42
2016-11-22T12:33:18.393Z,1011.45
2016-11-22T12:34:28.463Z,1011.45
2016-11-22T12:35:38.514Z,1011.42
2016-11-22T12:36:48.664Z,1011.46
2016-11-22T12:37:59.023Z,1011.45
2016-11-22T12:39:09.370Z,1011.45
2016-11-22T12:40:19.479Z,1011.42
2016-11-22T12:41:29.869Z,1011.47
2016-11-22T12:42:40.200Z,1011.47
2016-11-22T12:43:50.689Z,1011.51
2016-11-22T12:45:01.033Z,1011.48
2016-11-22T12:46:11.405Z,1011.48
2016-11-22T12:47:21.735Z,1011.45
2016-11-22T12:48:32.133Z,1011.48
2016-11-22T12:49:42.687Z,1011.48
2016-11-22T12:50:53.037Z,1011.47
2016-11-22T12:52:03.398Z,1011.47
2016-11-22T12:53:13.852Z,1011.49
2016-11-22T12:54:24.227Z,1011.53
2016-11-22T12:55:34.597Z,1011.52
2016-11-22T12:56:45.279Z,1011.57
2016-11-22T12:57:55.699Z,1011.55
2016-11-22T12:59:06.446Z,1011.62
2016-11-22T13:00:16.776Z,1011.63
2016-11-22T13:01:27.136Z,1011.65
2016-11-22T13:02:37.235Z,1011.62
2016-11-22T13:03:47.750Z,1011.66
2016-11-22T13:04:58.221Z,1011.66
2016-11-22T13:06:08.784Z,1011.68
2016-11-22T13:07:18.869Z,1011.69
2016-11-22T13:08:28.893Z,1011.72
2016-11-22T13:09:39.291Z,1011.64
2016-11-22T13:10:49.612Z,1011.63
2016-11-22T13:12:00.333Z,1011.6
2016-11-22T13:13:10.715Z,1011.59
2016-11-22T13:14:21.076Z,1011.55
2016-11-22T13:15:31.447Z,1011.59
2016-11-22T13:16:41.793Z,1011.6
2016-11-22T13:17:52.152Z,1011.65
2016-11-22T13:19:02.761Z,1011.69
2016-11-22T13:20:12.201Z,1011.71
2016-11-22T13:21:22.432Z,1011.73
2016-11-22T13:22:32.950Z,1011.78
2016-11-22T13:23:43.289Z,1011.82
2016-11-22T13:24:53.031Z,1011.9
2016-11-22T13:26:03.443Z,1011.93
2016-11-22T13:27:13.810Z,1011.88
2016-11-22T13:28:23.851Z,1011.85
2016-11-22T13:29:34.256Z,1011.83
2016-11-22T13:30:44.839Z,1011.87
2016-11-22T13:31:55.927Z,1011.82
2016-11-22T13:33:06.289Z,1011.88
2016-11-22T13:34:16.654Z,1011.89
2016-11-22T13:35:26.709Z,1011.93
2016-11-22T13:36:37.092Z,1011.94
2016-11-22T13:37:47.403Z,1011.93
2016-11-22T13:38:57.819Z,1011.89
2016-11-22T13:40:07.914Z,1011.91
2016-11-22T13:41:18.285Z,1011.88
2016-11-22T13:42:28.640Z,1011.88
2016-11-22T13:43:38.711Z,1011.98
2016-11-22T13:44:49.090Z,1012.01
2016-11-22T13:45:59.435Z,1012.02
2016-11-22T13:47:09.481Z,1012
2016-11-22T13:48:19.232Z,1012.03
2016-11-22T13:49:29.598Z,1012.05
2016-11-22T13:50:40.069Z,1012.07
2016-11-22T13:51:50.518Z,1012.04
2016-11-22T13:53:00.870Z,1012.02
2016-11-22T13:54:11.250Z,1012.08
2016-11-22T13:55:21.602Z,1012.1
2016-11-22T13:56:32.003Z,1012.15
2016-11-22T13:57:42.416Z,1012.19
2016-11-22T13:58:52.880Z,1012.22
2016-11-22T14:00:03.286Z,1012.18
2016-11-22T14:01:13.630Z,1012.21
2016-11-22T14:02:23.662Z,1012.17
2016-11-22T14:03:33.682Z,1012.14
2016-11-22T14:04:44.042Z,1012.16
2016-11-22T14:05:54.413Z,1012.14
2016-11-22T14:07:05.162Z,1012.12
2016-11-22T14:08:15.667Z,1012.13
2016-11-22T14:09:26.042Z,1012.13
2016-11-22T14:10:36.435Z,1012.1
2016-11-22T14:11:46.784Z,1012.08
2016-11-22T14:12:56.912Z,1012.08